Flight Track Log - Related Links

Times and Time Zones

All times are in EDT time to prevent confusion due to time zone crossing. See the N580EA flight status page for this flight to view local times or setup timezone preferences in your user account.

Time Position Orientation Groundspeed Altitude Reporting Facility
EDT Latitude Longitude Course Direction KTS MPH feet Rate Location/Type
Fri 11:45:46 AM 38.4825 -100.8234 84° East  Level FlightAware Approximate
Fri 11:45:52 AM 38.5003 -100.5981 77° East 160 184 7,100  Level Kansas City Center
Fri 11:46:52 AM 38.5092 -100.5483 80° East 160 184 7,000 -50 Descending Kansas City Center
Fri 11:47:52 AM 38.5186 -100.4825 80° East 178 205 7,000  Level Kansas City Center
Fri 11:48:52 AM 38.5286 -100.4064 77° East 186 214 7,000  Level Kansas City Center
Fri 11:49:52 AM 38.5403 -100.3411 81° East 186 214 7,000  Level Kansas City Center
Fri 11:50:52 AM 38.5475 -100.2806 82° East 191 220 7,000  Level Kansas City Center
Fri 11:51:52 AM 38.5547 -100.2119 78° East 191 220 7,000  Level Kansas City Center
Fri 11:52:52 AM 38.5667 -100.1411 82° East 191 220 7,000 150 Level Kansas City Center
Fri 11:53:52 AM 38.5742 -100.0700 84° East 196 226 7,300 500 Climbing Kansas City Center
Fri 11:54:52 AM 38.5783 -100.0225 79° East 171 197 8,000 650 Climbing Kansas City Center
Fri 11:55:52 AM 38.5872 -99.9647 76° East 165 190 8,600 500 Climbing Kansas City Center
Fri 11:56:52 AM 38.5983 -99.9072 85° East 152 175 9,000 250 Climbing Kansas City Center
Fri 11:57:52 AM 38.6033 -99.8383 79° East 168 193 9,100 50 Climbing Kansas City Center
Fri 11:58:52 AM 38.6122 -99.7781 80° East 183 211 9,100  Level Kansas City Center
Fri 11:59:52 AM 38.6217 -99.7069 81° East 194 223 9,100  Level Kansas City Center
Fri 12:00:52 PM 38.6314 -99.6253 80° East 207 238 9,100  Level Kansas City Center
Fri 12:01:52 PM 38.6408 -99.5539 76° East 207 238 9,100 -50 Level Kansas City Center
Fri 12:02:52 PM 38.6542 -99.4831 83° East 207 238 9,000 -50 Descending Kansas City Center
Fri 12:03:52 PM 38.6614 -99.4092 81° East 207 238 9,000  Level Kansas City Center
Fri 12:04:52 PM 38.6708 -99.3328 81° East 207 238 9,000  Level Kansas City Center
Fri 12:05:52 PM 38.6800 -99.2614 83° East 207 238 9,000  Level Kansas City Center
Fri 12:06:52 PM 38.6869 -99.1875 81° East 207 238 9,000  Level Kansas City Center
Fri 12:07:52 PM 38.6961 -99.1161 76° East 207 238 9,000  Level Kansas City Center
Fri 12:08:52 PM 38.7092 -99.0478 83° East 207 238 9,000  Level Kansas City Center
Fri 12:09:52 PM 38.7158 -98.9764 81° East 207 238 9,000  Level Kansas City Center
Fri 12:10:52 PM 38.7250 -98.9022 81° East 201 231 9,000  Level Kansas City Center
Fri 12:11:52 PM 38.7339 -98.8283 81° East 201 231 9,000  Level Kansas City Center
Fri 12:12:52 PM 38.7428 -98.7544 83° East 201 231 9,000  Level Kansas City Center
Fri 12:13:52 PM 38.7494 -98.6803 79° East 201 231 9,000  Level Kansas City Center
Fri 12:14:52 PM 38.7606 -98.6061 83° East 201 231 9,000  Level Kansas City Center
Fri 12:15:52 PM 38.7672 -98.5322 81° East 201 231 9,000  Level Kansas City Center
Fri 12:16:52 PM 38.7758 -98.4606 81° East 201 231 9,000 50 Level Kansas City Center
Fri 12:17:52 PM 38.7844 -98.3892 82° East 201 231 9,100 50 Climbing Kansas City Center
Fri 12:18:52 PM 38.7931 -98.3150 81° East 201 231 9,100  Level Kansas City Center
Fri 12:19:52 PM 38.8014 -98.2436 81° East 201 231 9,100  Level Kansas City Center
Fri 12:20:52 PM 38.8100 -98.1719 82° East 201 231 9,100  Level Kansas City Center
Fri 12:21:52 PM 38.8186 -98.0953 81° East 201 231 9,100  Level Kansas City Center
Fri 12:22:52 PM 38.8269 -98.0236 81° East 201 231 9,100  Level Kansas City Center
Fri 12:23:52 PM 38.8353 -97.9519 82° East 201 231 9,100  Level Kansas City Center
Fri 12:24:52 PM 38.8436 -97.8778 84° East 201 231 9,100  Level Kansas City Center
Fri 12:25:52 PM 38.8497 -97.8061 81° East 201 231 9,100  Level Kansas City Center
Fri 12:26:52 PM 38.8581 -97.7344 82° East 201 231 9,100  Level Kansas City Center
Fri 12:27:52 PM 38.8661 -97.6628 81° East 201 231 9,100  Level Kansas City Center
Fri 12:28:52 PM 38.8744 -97.5911 82° East 201 231 9,100  Level Kansas City Center
Fri 12:29:52 PM 38.8825 -97.5142 84° East 201 231 9,100  Level Kansas City Center
Fri 12:30:52 PM 38.8886 -97.4397 82° East 201 231 9,100  Level Kansas City Center
Fri 12:31:52 PM 38.8967 -97.3656 79° East 207 238 9,100  Level Kansas City Center
Fri 12:32:52 PM 38.9067 -97.2964 87° East 207 238 9,100 -350 Level Kansas City Center
Fri 12:33:52 PM 38.9106 -97.2139 79° East 207 238 8,400 -850 Descending Kansas City Center
Fri 12:34:52 PM 38.9228 -97.1317 82° East 223 257 7,400 -600 Descending Kansas City Center
Fri 12:35:52 PM 38.9308 -97.0544 84° East 223 257 7,200 -150 Descending Kansas City Center
Fri 12:36:52 PM 38.9364 -96.9853 80° East 210 242 7,100 -100 Descending Kansas City Center
Fri 12:37:52 PM 38.9461 -96.9136 84° East 205 236 7,000 -50 Descending Kansas City Center
Fri 12:38:52 PM 38.9519 -96.8364 82° East 199 229 7,000  Level Kansas City Center
Fri 12:39:52 PM 38.9594 -96.7672 80° East 199 229 7,000  Level Kansas City Center
Fri 12:40:52 PM 38.9692 -96.6953 83° East 199 229 7,000  Level Kansas City Center
Fri 12:41:52 PM 38.9744 -96.6367 91° East 199 229 7,000 -400 Level Kansas City Center
Fri 12:42:52 PM 38.9736 -96.5539 103° East 199 229 6,200 -750 Descending Kansas City Center
Fri 12:43:52 PM 38.9603 -96.4817 101° East 204 235 5,500 -600 Descending Kansas City Center
Fri 12:44:52 PM 38.9489 -96.4064 100° East 204 235 5,000 -300 Descending Kansas City Center
Fri 12:45:52 PM 38.9397 -96.3422 102° East 199 229 4,900 -50 Descending Kansas City Center
Fri 12:46:52 PM 38.9281 -96.2725 99° East 192 221 4,900 50 Level Kansas City Center
Fri 12:47:52 PM 38.9206 -96.2111 103° East 178 205 5,000  Climbing Kansas City Center
Fri 12:48:52 PM 38.9092 -96.1467 97° East 178 205 4,900 -50 Descending Kansas City Center
Fri 12:49:52 PM 38.9036 -96.0906 102° East 178 205 4,900 -50 Level Kansas City Center
Fri 12:50:52 PM 38.8919 -96.0208 99° East 178 205 4,800  Descending Kansas City Center
Fri 12:51:52 PM 38.8844 -95.9594 101° East 183 211 4,900 50 Climbing Kansas City Center
Fri 12:52:52 PM 38.8747 -95.8953 100° East 183 211 4,900 100 Level Kansas City Center
Fri 12:53:52 PM 38.8669 -95.8392 98° East 183 211 5,100 150 Climbing Kansas City Center
Fri 12:54:52 PM 38.8594 -95.7697 99° East 183 211 5,200 -50 Climbing Kansas City Center
Fri 12:55:52 PM 38.8517 -95.7056 101° East 183 211 5,000 -250 Descending Kansas City Center
Fri 12:56:52 PM 38.8419 -95.6389 98° East 183 211 4,700 -450 Descending Kansas City Center
Fri 12:57:52 PM 38.8342 -95.5719 95° East 189 217 4,100 -400 Descending Kansas City Center
Fri 12:58:52 PM 38.8286 -95.4972 89° East 189 217 3,900 -100 Descending Kansas City Center
Fri 12:59:52 PM 38.8292 -95.4361 41° Northeast 183 211 3,900 -50 Level Kansas City Center
Fri 01:00:52 PM 38.8650 -95.3964 349° North 157 181 3,800 -300 Descending Kansas City Center
Fri 01:01:52 PM 38.9086 -95.4078 North 139 160 3,300 -300 Descending Kansas City Center
Fri 01:02:52 PM 38.9586 -95.4056 304° West 166 191 3,200 -200 Descending Kansas City Center
Fri 01:03:52 PM 38.9811 -95.4486 290° West 141 162 2,900 -100 Descending Kansas City Center
Fri 01:04:52 PM 38.9933 -95.4914 293° West 135 155 3,000 100 Climbing Kansas City Center
Fri 01:05:52 PM 39.0056 -95.5292 303° West 135 155 3,100 -250 Climbing Kansas City Center
Fri 01:06:52 PM 39.0261 -95.5694 317° Northwest 129 148 2,500 -750 Descending Kansas City Center
Fri 01:07:52 PM 39.0550 -95.6047 314° West 129 148 1,600 -600 Descending Kansas City Center
Fri 01:08:52 PM 39.0756 -95.6317 340° North 119 137 1,300 200 Descending Kansas City Center
Fri 01:09:52 PM 39.1044 -95.6456 78° East 113 130 2,000 700 Climbing Kansas City Center
Fri 01:10:52 PM 39.1111 -95.6056 41° Northeast 99 114 2,700 550 Climbing Kansas City Center
Fri 01:11:52 PM 39.1303 -95.5844 79° East 96 110 3,100 3,150 Climbing Kansas City Center
Fri 01:12:52 PM 39.1369 -95.5389 69° East 96 110 9,000 2,950 Climbing Kansas City Center
Fri 01:13:52 PM 39.1475 -95.5042 66° East 96 110 9,000 -2,950 Level Kansas City Center
Fri 01:14:52 PM 39.1583 -95.4722 68° East 96 110 3,100 -2,950 Descending Kansas City Center
Fri 01:15:52 PM 39.1689 -95.4378 360° North 96 110 3,100  Level Kansas City Center
Fri 01:16:52 PM 39.1689 -95.4378 360° North 96 110 3,100  Level Kansas City Center
Fri 01:17:52 PM 39.1689 -95.4378 360° North 96 110 3,100  Level Kansas City Center
Fri 01:18:52 PM 39.1689 -95.4378 360° North 96 110 3,100  Level Kansas City Center
Fri 01:19:52 PM 39.1689 -95.4378 360° North 96 110 3,100  Level Kansas City Center
Fri 01:20:52 PM 39.1689 -95.4378 360° North 96 110 3,100  Level Kansas City Center
Fri 01:21:52 PM 39.1689 -95.4378 360° North 96 110 3,100  Level Kansas City Center
Fri 01:22:52 PM 39.1689 -95.4378 360° North 96 110 3,100  Level Kansas City Center
Fri 01:23:52 PM 39.1689 -95.4378 360° North 96 110 3,100  Level Kansas City Center
Fri 01:24:52 PM 39.1689 -95.4378 360° North 96 110 3,100  Level Kansas City Center
Fri 01:25:52 PM 39.1689 -95.4378 360° North 96 110 3,100  Level Kansas City Center
Fri 01:26:52 PM 39.1689 -95.4378 360° North 96 110 3,100  Level Kansas City Center
Fri 01:27:52 PM 39.1689 -95.4378 360° North 96 110 3,100  Level Kansas City Center
Fri 01:28:52 PM 39.1689 -95.4378 360° North 96 110 3,100  Level Kansas City Center
Fri 01:29:52 PM 39.1689 -95.4378 360° North 96 110 3,100  Level Kansas City Center
Fri 01:30:52 PM 39.1689 -95.4378 360° North 96 110 3,100  Level Kansas City Center
Fri 01:31:52 PM 39.1689 -95.4378 360° North 96 110 3,100  Level Kansas City Center
Fri 01:32:52 PM 39.1689 -95.4378 360° North 96 110 3,100  Level Kansas City Center
Fri 01:33:52 PM 39.1689 -95.4378 360° North 96 110 3,100  Level Kansas City Center
Fri 01:34:52 PM 39.1689 -95.4378 360° North 96 110 3,100  Level Kansas City Center
Fri 01:35:52 PM 39.1689 -95.4378 360° North 96 110 3,100  Level Kansas City Center
Fri 01:36:52 PM 39.1689 -95.4378 360° North 96 110 3,100  Level Kansas City Center
Fri 01:37:52 PM 39.1689 -95.4378 360° North 96 110 3,100  Level Kansas City Center
Fri 01:38:52 PM 39.1689 -95.4378 360° North 96 110 3,100  Level Kansas City Center
Fri 01:39:52 PM 39.1689 -95.4378 360° North 96 110 3,100  Level Kansas City Center
Fri 01:40:52 PM 39.1689 -95.4378 360° North 96 110 3,100  Level Kansas City Center
Fri 01:41:52 PM 39.1689 -95.4378 360° North 96 110 3,100  Level Kansas City Center
Fri 01:42:52 PM 39.1689 -95.4378 360° North 96 110 3,100  Level Kansas City Center
Fri 01:43:52 PM 39.1689 -95.4378 360° North 96 110 3,100  Level Kansas City Center
Fri 01:44:52 PM 39.1689 -95.4378 360° North 96 110 3,100  Level Kansas City Center
Fri 01:45:52 PM 39.1689 -95.4378 360° North 96 110 3,100  Level Kansas City Center
Fri 01:46:52 PM 39.1689 -95.4378 360° North 96 110 3,100  Level Kansas City Center
Fri 01:47:52 PM 39.1689 -95.4378 360° North 96 110 3,100  Level Kansas City Center
Fri 01:48:52 PM 39.1689 -95.4378 360° North 96 110 3,100  Level Kansas City Center
Fri 01:49:52 PM 39.1689 -95.4378 360° North 96 110 3,100  Level Kansas City Center
Fri 01:50:52 PM 39.1689 -95.4378 360° North 96 110 3,100  Level Kansas City Center
Fri 01:51:52 PM 39.1689 -95.4378 360° North 96 110 3,100  Level Kansas City Center
Fri 01:52:52 PM 39.1689 -95.4378 360° North 96 110 3,100  Level Kansas City Center
Fri 01:53:52 PM 39.1689 -95.4378 360° North 96 110 3,100  Level Kansas City Center
Fri 01:54:52 PM 39.1689 -95.4378 360° North 96 110 3,100  Level Kansas City Center
Fri 01:55:52 PM 39.1689 -95.4378 360° North 96 110 3,100  Level Kansas City Center
Fri 01:56:52 PM 39.1689 -95.4378 360° North 96 110 3,100  Level Kansas City Center
Fri 01:57:52 PM 39.1689 -95.4378 360° North 96 110 3,100  Level Kansas City Center
Fri 01:58:52 PM 39.1689 -95.4378 360° North 96 110 3,100  Level Kansas City Center
Fri 01:59:52 PM 39.1689 -95.4378 360° North 96 110 3,100  Level Kansas City Center

Login

Don't have an account? Register now (free) for customized features, flight alerts, and more!